Impacts METAR Board INFO
IDs:

KCLE - Cleveland/Hopkins In, OH, US

Updated at: 0650 UTC 19 Nov 2017
Potential Impact None Slight Moderate High
Time18/18Z 18/19Z 18/20Z 18/21Z 18/22Z 18/23Z 19/00Z 19/01Z 19/02Z 19/03Z 19/04Z 19/05Z 19/06Z
VIS4 9 3 2 6 6 10 4 3 3 4 9 10
CIG85 23 22 24 65 70 25 6 5 6 8 10 13
CoverOVCOVCOVCOVCOVCOVCOVCOVCOVCOVCOVCOVCOVC
FltCatMVFRMVFRMVFRIFRVFRVFRMVFRIFRIFRIFRIFRMVFRMVFR
WXRA BR-RARA BR+RA BRRA BRRA BR---RA BR-RA BR-RA BRRA BR-RA-RA
WDir180170150190170180200300320320310300300
WSpd10 10 8 14 21 13 14 18 18 17 19 19 15
WGst-- 18 -- 22 25 22 -- 25 29 32 29 29 29
Raw hourly METARs
KCLE 181751Z 18010KT 4SM RA BR SCT070 OVC085 10/09 A2939 RMK AO2 SLP955 P0012 60017 T01000089 10100 20072 58048 $
KCLE 181851Z 17010G18KT 9SM -RA FEW010 BKN023 OVC085 11/09 A2935 RMK AO2 SLP939 P0014 T01060094 $
KCLE 181951Z 15008KT 3SM RA BR BKN022 BKN031 OVC041 11/10 A2929 RMK AO2 PRESFR SLP918 P0024 T01060100 $
KCLE 182105Z 19014G22KT 2SM +RA BR FEW010 BKN024 OVC035 12/10 A2926 RMK AO2 WSHFT 2051 P0013 T01170100 $
KCLE 182151Z 17021G25KT 6SM RA BR FEW024 BKN065 OVC080 12/10 A2920 RMK AO2 WSHFT 2051 PRESFR SLP889 P0043 T01170100 $
KCLE 182251Z 18013G22KT 6SM RA BR OVC070 12/11 A2918 RMK AO2 PK WND 16027/2158 SLP881 P0024 T01220106 $
KCLE 190002Z 20014KT 10SM BKN025 BKN060 OVC100 13/12 A2917 RMK AO2 T01330122 $
KCLE 190051Z 30018G25KT 4SM -RA BR OVC006 12/11 A2921 RMK AO2 WSHFT 0014 RAB15 SLP890 P0004 T01170111 $
KCLE 190151Z 32018G29KT 3SM -RA BR OVC005 08/07 A2925 RMK AO2 PK WND 32029/0148 SLP906 P0003 T00780067 $
KCLE 190251Z 32017G32KT 3SM -RA BR BKN006 BKN013 OVC018 06/04 A2931 RMK AO2 PK WND 31032/0243 PRESRR SLP929 P0004 60011 T00610044 53045 $
KCLE 190351Z 31019G29KT 4SM RA BR BKN008 OVC014 03/02 A2939 RMK AO2 PK WND 31034/0307 SLP954 P0015 T00280017 $
KCLE 190451Z 30019G29KT 9SM -RA BKN010 OVC016 03/02 A2942 RMK AO2 PK WND 30030/0440 SLP966 P0008 T00330022 401390028 $
KCLE 190551Z 30015G29KT 10SM -RA BKN013 OVC019 04/02 A2948 RMK AO2 PK WND 32033/0520 PRESRR SLP986 P0003 60037 T00390022 10139 20028 51056 $